< < Back
Terminal Aerodrome Forecast


Current Version              Previous Versions:   1  2  3  4  5  6  7  8  9  

Terminal Aerodrome Forecast

521
FTUS44 KOHX 162200 AAD
TAFCSV
TAF AMD
KCSV 162235Z 1623/1718 33008KT 1SM BR OVC002
     FM170200 00000KT 6SM BR SCT250
     FM170600 00000KT 3SM BR SCT005
      TEMPO 1708/1712 1/4SM FG VV001
     FM171500 03005KT P6SM SCT250=



Latest METAR

464
SAUS70 KWBC 162300 RRN
MTRCSV
METAR KCSV 162253Z AUTO 35006KT 2SM BR OVC003 18/16 A3009 RMK AO2 SLP173
T01830161


USA.gov is the U.S. government's official web portal to all federal, state and local government web resources and services.